Aérodrome :
LOGIN :

S'inscrire | Disclaimer

   EN    FR    IT 

 










Légende :    VFR   VFR Marginal   IFR   IFR Intensif   IFR Très Intensif
Visi : 
Plafond : 
>= 8 km
>= 3000ft
5 à 8 km
1000 à 3000 ft
1500m à 5 km
500 à 1000 ft
800 à 1500m
200 à 500 ft
< 800m
< 200 ft
Symboles :   Orages  Brouillard  Fortes neiges  Fortes précipitations  Vent > 20 kt
SIGMETs :   Divers  Orages  Givrage  Turbulence  Onde Orograph.  Cendres Volcan.







- Altitude de l'aérodrome : 26 ft


ETNT - Wittmundhaven AB

DERNIER METAR :
  • 192320Z AUTO 13005KT 7000 // ////// 12/11 Q1008 ///

METARs EXPIRÉS :
  • 192220Z AUTO 15005KT 8000 // ////// 13/11 Q1008 ///
  • 192120Z AUTO 13006KT 7000 // ////// 13/11 Q1009 ///

TAF TAF ETNT
Valide du 19 à 23h jusqu'au 20 à 08h UTC


192200Z 1923/2008 12005KT 8000 NSW SCT040 BKN280
TEMPO 1923/2006 14003KT 3000 BR SCT040 BKN180
TEMPO 2006/2008 16008KT 4000 -SHRA SCT020 BKN040TCU CANCEL BY ETGL
Pas de NOTAMs connus pour ce terrain.



MET'MAP, la Météo Aéronautique d'un coup d'oeil ! - Copyright ORBIFLY Décembre 2007 - Disclaimer

ORBIFLY MET'MAP TEAM :

Programmation & Développement : Alexandra Zaïnal
Conception & Développement : Baudouin d'Aumeries
Co-Programmation & Développement : Marc-Olivier Méhu
Soutien technique & logistique : Manuel Goepfert

Contact : metmap@orbifly.com




SOURCES & CREDITS :

   NOAA